createdAt,value
2022-07-30T00:00:09.736Z,99.99
2022-07-30T00:01:09.748Z,99.99
2022-07-30T00:02:09.630Z,99.99
2022-07-30T00:03:09.584Z,99.99
2022-07-30T00:04:09.618Z,99.99
2022-07-30T00:05:09.478Z,99.99
2022-07-30T00:06:09.465Z,99.99
2022-07-30T00:07:09.390Z,99.99
2022-07-30T00:08:09.331Z,99.99
2022-07-30T00:09:09.279Z,99.99
2022-07-30T00:10:09.229Z,99.99
2022-07-30T00:11:09.199Z,99.99
2022-07-30T00:12:09.167Z,99.99
2022-07-30T00:13:09.087Z,99.99
2022-07-30T00:14:09.036Z,99.99
2022-07-30T00:15:08.964Z,99.99
2022-07-30T00:16:08.913Z,99.99
2022-07-30T00:17:08.917Z,99.99
2022-07-30T00:18:08.857Z,99.99
2022-07-30T00:19:08.759Z,99.99
2022-07-30T00:20:08.709Z,99.99
2022-07-30T00:21:08.658Z,99.99
2022-07-30T00:22:08.619Z,99.99
2022-07-30T00:23:08.562Z,99.99
2022-07-30T00:24:08.633Z,99.99
2022-07-30T00:25:08.495Z,99.99
2022-07-30T00:26:08.426Z,99.99
2022-07-30T00:27:08.389Z,99.99
2022-07-30T00:28:08.347Z,99.99
2022-07-30T00:29:08.280Z,99.99
2022-07-30T00:30:08.219Z,99.99
2022-07-30T00:31:08.246Z,99.99
2022-07-30T00:32:08.157Z,99.99
2022-07-30T00:33:08.330Z,99.99
2022-07-30T00:34:08.053Z,99.99
2022-07-30T00:35:07.974Z,99.99
2022-07-30T00:36:07.910Z,99.99
2022-07-30T00:37:07.881Z,99.99
2022-07-30T00:38:07.838Z,99.99
2022-07-30T00:39:07.781Z,99.99
2022-07-30T00:40:07.746Z,99.99
2022-07-30T00:41:07.668Z,99.99
2022-07-30T00:42:07.620Z,99.99
2022-07-30T00:43:07.576Z,99.99
2022-07-30T00:44:07.517Z,99.99
2022-07-30T00:45:07.502Z,99.99
2022-07-30T00:46:07.496Z,99.99
2022-07-30T00:47:07.388Z,99.99
2022-07-30T00:48:07.344Z,99.99
2022-07-30T00:49:07.320Z,99.99
2022-07-30T00:50:07.238Z,99.99
2022-07-30T00:51:07.184Z,99.99
2022-07-30T00:52:07.091Z,99.99
2022-07-30T00:53:07.077Z,99.99
2022-07-30T00:54:07.026Z,99.99
2022-07-30T00:55:06.965Z,99.99
2022-07-30T00:56:06.939Z,99.99
2022-07-30T00:57:06.865Z,99.99
2022-07-30T00:58:06.820Z,99.99
2022-07-30T00:59:06.770Z,99.99
2022-07-30T01:00:06.700Z,99.99
2022-07-30T01:01:06.724Z,99.99
2022-07-30T01:02:15.906Z,99.99
2022-07-30T01:03:06.575Z,99.99
2022-07-30T01:04:06.554Z,99.99
2022-07-30T01:05:06.472Z,99.99
2022-07-30T01:06:06.420Z,99.99
2022-07-30T01:07:06.347Z,99.99
2022-07-30T01:08:06.434Z,99.99
2022-07-30T01:09:06.279Z,99.99
2022-07-30T01:10:06.219Z,99.99
2022-07-30T01:11:06.163Z,99.99
2022-07-30T01:12:06.114Z,99.99
2022-07-30T01:13:06.060Z,99.99
2022-07-30T01:14:06.037Z,99.99
2022-07-30T01:15:05.983Z,99.99
2022-07-30T01:16:05.966Z,99.99
2022-07-30T01:17:05.859Z,99.99
2022-07-30T01:18:05.811Z,99.99
2022-07-30T01:19:05.793Z,99.99
2022-07-30T01:20:05.712Z,99.99
2022-07-30T01:21:05.665Z,99.99
2022-07-30T01:22:05.612Z,99.99
2022-07-30T01:23:05.559Z,99.99
2022-07-30T01:24:05.519Z,99.99
2022-07-30T01:25:05.460Z,99.99
2022-07-30T01:26:05.389Z,99.99
2022-07-30T01:27:05.342Z,99.99
2022-07-30T01:28:05.329Z,99.99
2022-07-30T01:29:05.281Z,99.99
2022-07-30T01:30:05.230Z,99.99
2022-07-30T01:31:05.150Z,99.99
2022-07-30T01:32:05.174Z,99.99
2022-07-30T01:33:05.050Z,99.99
2022-07-30T01:34:05.002Z,99.99
2022-07-30T01:35:04.978Z,99.99
2022-07-30T01:36:04.898Z,99.99
2022-07-30T01:37:04.856Z,99.99
2022-07-30T01:38:04.801Z,99.99
2022-07-30T01:39:04.760Z,99.99
2022-07-30T01:40:04.720Z,99.99
2022-07-30T01:41:04.637Z,99.99
2022-07-30T01:42:04.641Z,99.99
2022-07-30T01:43:04.550Z,99.99
2022-07-30T01:44:04.501Z,99.99
2022-07-30T01:45:04.493Z,99.99
2022-07-30T01:46:04.449Z,99.99
2022-07-30T01:47:04.343Z,99.99
2022-07-30T01:48:04.280Z,99.99
2022-07-30T01:49:04.288Z,99.99
2022-07-30T01:50:04.231Z,99.99
2022-07-30T01:51:04.172Z,99.99
2022-07-30T01:52:04.109Z,99.99
2022-07-30T01:53:04.096Z,99.99
2022-07-30T01:54:04.000Z,99.99
2022-07-30T01:55:03.975Z,99.99
2022-07-30T01:56:03.962Z,99.99
2022-07-30T01:57:04.033Z,99.99
2022-07-30T01:58:03.801Z,99.99
2022-07-30T01:59:03.749Z,99.99
2022-07-30T02:00:03.693Z,99.99
2022-07-30T02:01:03.796Z,99.99
2022-07-30T02:02:03.610Z,99.99
2022-07-30T02:03:03.523Z,99.99
2022-07-30T02:04:03.569Z,99.99
2022-07-30T02:05:03.431Z,99.99
2022-07-30T02:06:03.371Z,99.99
2022-07-30T02:07:03.720Z,99.99
2022-07-30T02:08:03.307Z,99.99
2022-07-30T02:09:06.998Z,99.99
2022-07-30T02:10:03.180Z,99.99
2022-07-30T02:11:03.120Z,99.99
2022-07-30T02:12:03.082Z,99.99
2022-07-30T02:13:03.029Z,99.99
2022-07-30T02:14:02.997Z,99.99
2022-07-30T02:15:02.931Z,99.99
2022-07-30T02:16:02.917Z,99.99
2022-07-30T02:17:03.394Z,99.99
2022-07-30T02:18:02.803Z,99.99
2022-07-30T02:19:04.387Z,99.99
2022-07-30T02:20:06.690Z,99.99
2022-07-30T02:21:02.653Z,99.99
2022-07-30T02:22:02.567Z,99.99
2022-07-30T02:23:02.548Z,99.99
2022-07-30T02:24:02.480Z,99.99
2022-07-30T02:25:02.420Z,99.99
2022-07-30T02:26:02.435Z,99.99
2022-07-30T02:27:02.900Z,99.99
2022-07-30T02:28:02.273Z,99.99
2022-07-30T02:29:02.240Z,99.99
2022-07-30T02:30:02.172Z,99.99
2022-07-30T02:31:02.195Z,99.99
2022-07-30T02:32:02.061Z,99.99
2022-07-30T02:33:02.040Z,99.99
2022-07-30T02:34:01.968Z,99.99
2022-07-30T02:35:01.904Z,99.99
2022-07-30T02:36:01.861Z,99.99
2022-07-30T02:37:02.207Z,99.99
2022-07-30T02:38:01.769Z,99.99
2022-07-30T02:39:01.719Z,99.99
2022-07-30T02:40:01.656Z,99.99
2022-07-30T02:41:01.603Z,99.99
2022-07-30T02:42:01.563Z,99.99
2022-07-30T02:43:01.499Z,99.99
2022-07-30T02:44:01.484Z,99.99
2022-07-30T02:45:01.416Z,99.99
2022-07-30T02:46:01.361Z,99.99
2022-07-30T02:47:04.714Z,99.99
2022-07-30T02:48:01.233Z,99.99
2022-07-30T02:49:01.257Z,99.99
2022-07-30T02:50:01.142Z,99.99
2022-07-30T02:51:01.097Z,99.99
2022-07-30T02:52:01.041Z,99.99
2022-07-30T02:53:01.008Z,99.99
2022-07-30T02:54:07.811Z,99.99
2022-07-30T02:55:00.899Z,99.99
2022-07-30T02:56:00.879Z,99.99
2022-07-30T02:57:01.070Z,99.99
2022-07-30T02:58:00.746Z,99.99
2022-07-30T02:59:00.710Z,99.99
2022-07-30T03:00:00.648Z,99.99
2022-07-30T03:01:00.734Z,99.99
2022-07-30T03:02:00.588Z,99.99
2022-07-30T03:03:00.498Z,99.99
2022-07-30T03:04:00.452Z,99.99
2022-07-30T03:05:00.429Z,99.99
2022-07-30T03:06:00.490Z,99.99
2022-07-30T03:07:03.665Z,99.99
2022-07-30T03:08:00.261Z,99.99
2022-07-30T03:09:00.203Z,99.99
2022-07-30T03:10:00.143Z,99.99
2022-07-30T03:11:00.123Z,99.99
2022-07-30T03:12:00.078Z,99.99
2022-07-30T03:12:59.988Z,99.99
2022-07-30T03:13:59.953Z,99.99
2022-07-30T03:14:59.888Z,99.99
2022-07-30T03:15:59.889Z,99.99
2022-07-30T03:17:00.037Z,99.99
2022-07-30T03:17:59.717Z,99.99
2022-07-30T03:18:59.698Z,99.99
2022-07-30T03:19:59.648Z,99.99
2022-07-30T03:20:59.583Z,99.99
2022-07-30T03:21:59.558Z,99.99
2022-07-30T03:22:59.482Z,99.99
2022-07-30T03:23:59.439Z,99.99
2022-07-30T03:24:59.379Z,99.99
2022-07-30T03:25:59.321Z,99.99
2022-07-30T03:26:59.507Z,99.99
2022-07-30T03:27:59.222Z,99.99
2022-07-30T03:28:59.181Z,99.99
2022-07-30T03:29:59.109Z,99.99
2022-07-30T03:30:59.117Z,99.99
2022-07-30T03:31:59.095Z,99.99
2022-07-30T03:32:58.998Z,99.99
2022-07-30T03:33:58.911Z,99.99
2022-07-30T03:35:01.008Z,99.99
2022-07-30T03:35:58.823Z,99.99
2022-07-30T03:36:59.058Z,99.99
2022-07-30T03:37:58.738Z,99.99
2022-07-30T03:38:58.679Z,99.99
2022-07-30T03:39:58.599Z,99.99
2022-07-30T03:40:58.571Z,99.99
2022-07-30T03:41:58.539Z,99.99
2022-07-30T03:42:58.460Z,99.99
2022-07-30T03:43:58.428Z,99.99
2022-07-30T03:44:58.360Z,99.99
2022-07-30T03:45:58.300Z,99.99
2022-07-30T03:46:58.531Z,99.99
2022-07-30T03:47:58.212Z,99.99
2022-07-30T03:48:58.197Z,99.99
2022-07-30T03:49:58.130Z,99.99
2022-07-30T03:50:58.057Z,99.99
2022-07-30T03:51:57.990Z,99.99
2022-07-30T03:52:57.920Z,99.99
2022-07-30T03:53:57.916Z,99.99
2022-07-30T03:54:57.845Z,99.99
2022-07-30T03:55:57.799Z,99.99
2022-07-30T03:56:58.019Z,99.99
2022-07-30T03:57:57.730Z,99.99
2022-07-30T03:58:57.673Z,99.99
2022-07-30T03:59:57.627Z,99.99
2022-07-30T04:00:57.571Z,99.99
2022-07-30T04:01:57.528Z,99.99
2022-07-30T04:02:57.449Z,99.99
2022-07-30T04:03:57.481Z,99.99
2022-07-30T04:04:57.369Z,99.99
2022-07-30T04:05:57.289Z,99.99
2022-07-30T04:06:57.238Z,99.99
2022-07-30T04:07:57.191Z,99.99
2022-07-30T04:08:57.150Z,99.99
2022-07-30T04:09:57.098Z,99.99
2022-07-30T04:10:57.059Z,99.99
2022-07-30T04:11:56.966Z,99.99
2022-07-30T04:12:56.921Z,99.99
2022-07-30T04:13:56.873Z,99.99
2022-07-30T04:14:56.846Z,99.99
2022-07-30T04:16:05.740Z,99.99
2022-07-30T04:16:56.736Z,99.99
2022-07-30T04:17:56.681Z,99.99
2022-07-30T04:18:56.671Z,99.99
2022-07-30T04:19:56.581Z,99.99
2022-07-30T04:20:56.544Z,99.99
2022-07-30T04:21:56.497Z,99.99
2022-07-30T04:22:56.410Z,99.99
2022-07-30T04:24:02.286Z,99.99
2022-07-30T04:24:56.323Z,99.99
2022-07-30T04:25:56.286Z,99.99
2022-07-30T04:26:56.219Z,99.99
2022-07-30T04:28:03.097Z,99.99
2022-07-30T04:28:56.139Z,99.99
2022-07-30T04:29:56.047Z,99.99
2022-07-30T04:30:56.074Z,99.99
2022-07-30T04:31:55.949Z,99.99
2022-07-30T04:32:55.920Z,99.99
2022-07-30T04:33:55.901Z,99.99
2022-07-30T04:34:55.810Z,99.99
2022-07-30T04:35:55.765Z,99.99
2022-07-30T04:36:55.740Z,99.99
2022-07-30T04:37:55.660Z,99.99
2022-07-30T04:38:55.604Z,99.99
2022-07-30T04:39:55.626Z,99.99
2022-07-30T04:40:55.511Z,99.99
2022-07-30T04:41:55.480Z,99.99
2022-07-30T04:42:55.387Z,99.99
2022-07-30T04:43:55.341Z,99.99
2022-07-30T04:44:55.328Z,99.99
2022-07-30T04:45:55.239Z,99.99
2022-07-30T04:46:55.271Z,99.99
2022-07-30T04:47:55.315Z,99.99
2022-07-30T04:48:55.172Z,99.99
2022-07-30T04:49:55.070Z,99.99
2022-07-30T04:50:55.825Z,99.99
2022-07-30T04:51:55.051Z,99.99
2022-07-30T04:52:54.879Z,99.99
2022-07-30T04:53:54.848Z,99.99
2022-07-30T04:54:54.819Z,99.99
2022-07-30T04:55:54.769Z,99.99
2022-07-30T04:56:54.734Z,99.99
2022-07-30T04:57:54.643Z,99.99
2022-07-30T04:58:54.581Z,99.99
2022-07-30T04:59:54.560Z,99.99
2022-07-30T05:00:54.504Z,99.99
2022-07-30T05:01:54.557Z,99.99
2022-07-30T05:02:54.374Z,99.99
2022-07-30T05:03:54.329Z,99.99
2022-07-30T05:04:54.329Z,99.99
2022-07-30T05:05:57.485Z,99.99
2022-07-30T05:06:54.178Z,99.99
2022-07-30T05:07:54.159Z,99.99
2022-07-30T05:08:54.085Z,99.99
2022-07-30T05:09:54.011Z,99.99
2022-07-30T05:10:53.982Z,99.99
2022-07-30T05:11:53.951Z,99.99
2022-07-30T05:12:53.860Z,99.99
2022-07-30T05:13:53.891Z,99.99
2022-07-30T05:14:53.772Z,99.99
2022-07-30T05:15:53.776Z,99.99
2022-07-30T05:16:53.705Z,99.99
2022-07-30T05:17:53.622Z,99.99
2022-07-30T05:18:53.581Z,99.99
2022-07-30T05:19:53.525Z,99.99
2022-07-30T05:20:53.490Z,99.99
2022-07-30T05:21:53.423Z,99.99
2022-07-30T05:22:53.360Z,99.99
2022-07-30T05:23:53.329Z,99.99
2022-07-30T05:24:53.302Z,99.99
2022-07-30T05:25:53.203Z,99.99
2022-07-30T05:26:53.201Z,99.99
2022-07-30T05:27:53.111Z,99.99
2022-07-30T05:28:56.670Z,99.99
2022-07-30T05:29:53.033Z,99.99
2022-07-30T05:30:53.016Z,99.99
2022-07-30T05:31:52.927Z,99.99
2022-07-30T05:32:52.861Z,99.99
2022-07-30T05:33:52.823Z,99.99
2022-07-30T05:34:52.761Z,99.99
2022-07-30T05:35:52.709Z,99.99
2022-07-30T05:36:52.679Z,99.99
2022-07-30T05:37:52.592Z,99.99
2022-07-30T05:38:52.547Z,99.99
2022-07-30T05:39:58.860Z,99.99
2022-07-30T05:40:52.439Z,99.99
2022-07-30T05:41:52.431Z,99.99
2022-07-30T05:42:52.348Z,99.99
2022-07-30T05:43:55.729Z,99.99
2022-07-30T05:44:52.252Z,99.99
2022-07-30T05:45:52.249Z,99.99
2022-07-30T05:46:52.181Z,99.99
2022-07-30T05:47:52.100Z,99.99
2022-07-30T05:48:52.091Z,99.99
2022-07-30T05:49:51.977Z,99.99
2022-07-30T05:50:51.975Z,99.99
2022-07-30T05:51:51.899Z,99.99
2022-07-30T05:52:51.850Z,99.99
2022-07-30T05:53:51.818Z,99.99
2022-07-30T05:54:51.730Z,99.99
2022-07-30T05:55:51.724Z,99.99
2022-07-30T05:56:51.644Z,99.99
2022-07-30T05:57:51.610Z,99.99
2022-07-30T05:58:51.552Z,99.99
2022-07-30T05:59:51.520Z,99.99
2022-07-30T06:00:51.441Z,99.99
2022-07-30T06:01:51.504Z,99.99
2022-07-30T06:02:51.329Z,99.99
2022-07-30T06:03:51.293Z,99.99
2022-07-30T06:04:51.327Z,99.99
2022-07-30T06:05:51.158Z,99.99
2022-07-30T06:06:51.139Z,99.99
2022-07-30T06:07:51.091Z,99.99
2022-07-30T06:08:51.040Z,99.99
2022-07-30T06:09:50.993Z,99.99
2022-07-30T06:10:50.918Z,99.99
2022-07-30T06:11:50.871Z,99.99
2022-07-30T06:12:50.831Z,99.99
2022-07-30T06:13:50.777Z,99.99
2022-07-30T06:14:50.720Z,99.99
2022-07-30T06:15:50.780Z,99.99
2022-07-30T06:16:50.660Z,99.99
2022-07-30T06:17:51.133Z,99.99
2022-07-30T06:18:50.697Z,99.99
2022-07-30T06:19:50.514Z,99.99
2022-07-30T06:20:50.423Z,99.99
2022-07-30T06:22:01.636Z,99.99
2022-07-30T06:22:50.355Z,99.99
2022-07-30T06:23:50.340Z,99.99
2022-07-30T06:24:50.259Z,99.99
2022-07-30T06:25:50.175Z,99.99
2022-07-30T06:26:50.159Z,99.99
2022-07-30T06:27:50.091Z,99.99
2022-07-30T06:28:50.106Z,99.99
2022-07-30T06:29:49.977Z,99.99
2022-07-30T06:30:49.968Z,99.99
2022-07-30T06:31:50.079Z,99.99
2022-07-30T06:32:50.336Z,99.99
2022-07-30T06:33:49.787Z,99.99
2022-07-30T06:34:55.145Z,99.99
2022-07-30T06:35:49.658Z,99.99
2022-07-30T06:36:49.658Z,99.99
2022-07-30T06:37:58.628Z,99.99
2022-07-30T06:38:49.575Z,99.99
2022-07-30T06:39:57.126Z,99.99
2022-07-30T06:40:49.467Z,99.99
2022-07-30T06:41:49.372Z,99.99
2022-07-30T06:42:49.329Z,99.99
2022-07-30T06:43:49.277Z,99.99
2022-07-30T06:44:49.274Z,99.99
2022-07-30T06:45:49.173Z,99.99
2022-07-30T06:46:49.143Z,99.99
2022-07-30T06:47:49.095Z,99.99
2022-07-30T06:48:49.091Z,99.99
2022-07-30T06:49:48.991Z,99.99
2022-07-30T06:50:48.930Z,99.99
2022-07-30T06:51:48.876Z,99.99
2022-07-30T06:52:48.855Z,99.99
2022-07-30T06:53:48.811Z,99.99
2022-07-30T06:54:48.744Z,99.99
2022-07-30T06:55:48.679Z,99.99
2022-07-30T06:56:48.644Z,99.99
2022-07-30T06:57:48.590Z,99.99
2022-07-30T06:58:48.550Z,99.99
2022-07-30T06:59:56.646Z,99.99
2022-07-30T07:00:48.445Z,99.99
2022-07-30T07:01:48.481Z,99.99
2022-07-30T07:02:48.348Z,99.99
2022-07-30T07:03:48.295Z,99.99
2022-07-30T07:04:48.349Z,99.99
2022-07-30T07:05:48.192Z,99.99
2022-07-30T07:06:48.130Z,99.99
2022-07-30T07:07:58.334Z,99.99
2022-07-30T07:08:52.601Z,99.99
2022-07-30T07:09:57.408Z,99.99
2022-07-30T07:10:47.923Z,99.99
2022-07-30T07:11:47.889Z,99.99
2022-07-30T07:12:47.820Z,99.99
2022-07-30T07:13:47.784Z,99.99
2022-07-30T07:14:47.760Z,99.99
2022-07-30T07:15:47.737Z,99.99
2022-07-30T07:16:48.963Z,99.99
2022-07-30T07:17:47.582Z,99.99
2022-07-30T07:18:47.537Z,99.99
2022-07-30T07:20:00.961Z,99.99
2022-07-30T07:20:47.421Z,99.99
2022-07-30T07:21:47.403Z,99.99
2022-07-30T07:22:47.357Z,99.99
2022-07-30T07:23:47.286Z,99.99
2022-07-30T07:24:47.234Z,99.99
2022-07-30T07:25:47.195Z,99.99
2022-07-30T07:26:47.184Z,99.99
2022-07-30T07:27:47.071Z,99.99
2022-07-30T07:28:47.063Z,99.99
2022-07-30T07:30:01.217Z,99.99
2022-07-30T07:30:46.981Z,99.99
2022-07-30T07:32:06.919Z,99.99
2022-07-30T07:32:46.831Z,99.99
2022-07-30T07:33:46.806Z,99.99
2022-07-30T07:34:46.751Z,99.99
2022-07-30T07:35:49.757Z,99.99
2022-07-30T07:36:46.657Z,99.99
2022-07-30T07:37:46.610Z,99.99
2022-07-30T07:38:46.563Z,99.99
2022-07-30T07:39:46.491Z,99.99
2022-07-30T07:40:46.479Z,99.99
2022-07-30T07:41:49.093Z,99.99
2022-07-30T07:42:46.387Z,99.99
2022-07-30T07:43:46.316Z,99.99
2022-07-30T07:44:46.284Z,99.99
2022-07-30T07:45:46.256Z,99.99
2022-07-30T07:46:46.224Z,99.99
2022-07-30T07:47:53.027Z,99.99
2022-07-30T07:48:46.132Z,99.99
2022-07-30T07:49:46.026Z,99.99
2022-07-30T07:50:46.000Z,99.99
2022-07-30T07:51:47.983Z,99.99
2022-07-30T07:52:45.868Z,99.99
2022-07-30T07:53:55.863Z,99.99
2022-07-30T07:54:45.768Z,99.99
2022-07-30T07:55:45.744Z,99.99
2022-07-30T07:56:45.682Z,99.99
2022-07-30T07:57:45.657Z,99.99
2022-07-30T07:58:45.602Z,99.99
2022-07-30T07:59:45.551Z,99.99
2022-07-30T08:00:45.477Z,99.99
2022-07-30T08:01:45.464Z,99.99
2022-07-30T08:02:45.433Z,99.99
2022-07-30T08:03:45.333Z,99.99
2022-07-30T08:04:45.320Z,99.99
2022-07-30T08:06:01.785Z,99.99
2022-07-30T08:06:45.221Z,99.99
2022-07-30T08:07:45.166Z,99.99
2022-07-30T08:08:45.128Z,99.99
2022-07-30T08:09:45.131Z,99.99
2022-07-30T08:10:45.050Z,99.99
2022-07-30T08:11:44.983Z,99.99
2022-07-30T08:12:44.911Z,99.99
2022-07-30T08:13:48.564Z,99.99
2022-07-30T08:14:44.846Z,99.99
2022-07-30T08:15:44.781Z,99.99
2022-07-30T08:16:44.874Z,99.99
2022-07-30T08:17:44.658Z,99.99
2022-07-30T08:18:44.651Z,99.99
2022-07-30T08:19:44.618Z,99.99
2022-07-30T08:20:44.571Z,99.99
2022-07-30T08:21:44.474Z,99.99
2022-07-30T08:22:44.461Z,99.99
2022-07-30T08:23:44.422Z,99.99
2022-07-30T08:24:44.367Z,99.99
2022-07-30T08:25:44.341Z,99.99
2022-07-30T08:26:44.262Z,99.99
2022-07-30T08:27:44.204Z,99.99
2022-07-30T08:28:44.167Z,99.99
2022-07-30T08:29:44.123Z,99.99
2022-07-30T08:30:44.065Z,99.60
2022-07-30T08:31:44.053Z,99.79
2022-07-30T08:32:43.983Z,99.40
2022-07-30T08:33:43.927Z,99.16
2022-07-30T08:34:43.891Z,99.16
2022-07-30T08:35:49.144Z,99.07
2022-07-30T08:36:43.839Z,98.68
2022-07-30T08:37:43.747Z,98.88
2022-07-30T08:38:43.720Z,98.63
2022-07-30T08:39:43.655Z,98.15
2022-07-30T08:40:43.636Z,97.67
2022-07-30T08:41:43.596Z,97.62
2022-07-30T08:42:43.500Z,96.80
2022-07-30T08:43:43.467Z,95.64
2022-07-30T08:44:43.415Z,95.39
2022-07-30T08:45:43.433Z,95.15
2022-07-30T08:46:47.227Z,94.76
2022-07-30T08:47:43.293Z,94.47
2022-07-30T08:48:43.276Z,93.79
2022-07-30T08:49:43.214Z,93.60
2022-07-30T08:50:43.174Z,94.18
2022-07-30T08:51:43.111Z,93.31
2022-07-30T08:52:43.045Z,93.35
2022-07-30T08:53:43.029Z,93.07
2022-07-30T08:54:42.997Z,93.26
2022-07-30T08:55:42.919Z,92.93
2022-07-30T08:56:42.896Z,91.82
2022-07-30T08:57:42.825Z,92.10
2022-07-30T08:58:42.818Z,92.78
2022-07-30T09:00:00.155Z,93.26
2022-07-30T09:00:42.691Z,93.12
2022-07-30T09:01:42.691Z,92.10
2022-07-30T09:02:42.603Z,91.95
2022-07-30T09:03:44.044Z,91.37
2022-07-30T09:04:42.507Z,91.22
2022-07-30T09:05:42.466Z,90.16
2022-07-30T09:06:42.900Z,90.34
2022-07-30T09:07:42.364Z,90.83
2022-07-30T09:08:42.359Z,90.50
2022-07-30T09:09:42.275Z,89.96
2022-07-30T09:10:42.243Z,88.79
2022-07-30T09:11:42.187Z,88.79
2022-07-30T09:12:42.191Z,87.29
2022-07-30T09:13:42.136Z,87.68
2022-07-30T09:14:42.057Z,87.72
2022-07-30T09:15:42.017Z,87.13
2022-07-30T09:16:41.965Z,86.71
2022-07-30T09:17:41.928Z,87.23
2022-07-30T09:18:41.915Z,87.58
2022-07-30T09:19:41.855Z,87.38
2022-07-30T09:20:41.774Z,86.80
2022-07-30T09:21:41.780Z,87.09
2022-07-30T09:22:41.682Z,86.55
2022-07-30T09:23:41.668Z,85.19
2022-07-30T09:24:41.608Z,87.18
2022-07-30T09:25:41.554Z,85.53
2022-07-30T09:26:41.532Z,85.33
2022-07-30T09:27:41.510Z,85.08
2022-07-30T09:28:41.466Z,85.08
2022-07-30T09:29:41.424Z,83.34
2022-07-30T09:30:41.429Z,83.86
2022-07-30T09:31:43.714Z,84.16
2022-07-30T09:32:41.294Z,82.79
2022-07-30T09:33:41.235Z,83.32
2022-07-30T09:34:41.188Z,83.03
2022-07-30T09:35:41.128Z,83.22
2022-07-30T09:36:41.096Z,82.74
2022-07-30T09:37:41.076Z,81.18
2022-07-30T09:38:41.006Z,82.60
2022-07-30T09:39:40.958Z,82.11
2022-07-30T09:40:42.934Z,82.65
2022-07-30T09:41:40.911Z,83.44
2022-07-30T09:42:40.816Z,83.34
2022-07-30T09:43:40.817Z,84.25
2022-07-30T09:44:40.773Z,84.79
2022-07-30T09:45:40.698Z,84.83
2022-07-30T09:46:40.777Z,84.01
2022-07-30T09:47:40.617Z,83.34
2022-07-30T09:48:40.643Z,83.04
2022-07-30T09:49:40.539Z,82.60
2022-07-30T09:50:40.511Z,82.56
2022-07-30T09:52:06.656Z,82.75
2022-07-30T09:52:43.874Z,82.32
2022-07-30T09:53:40.379Z,83.00
2022-07-30T09:54:40.295Z,84.07
2022-07-30T09:55:42.111Z,83.78
2022-07-30T09:56:40.231Z,83.69
2022-07-30T09:57:40.169Z,82.95
2022-07-30T09:58:40.156Z,82.99
2022-07-30T09:59:40.121Z,82.11
2022-07-30T10:00:42.422Z,82.75
2022-07-30T10:01:49.891Z,82.75
2022-07-30T10:02:39.965Z,81.98
2022-07-30T10:03:42.032Z,83.14
2022-07-30T10:04:40.400Z,82.79
2022-07-30T10:05:39.839Z,82.84
2022-07-30T10:06:41.931Z,81.57
2022-07-30T10:07:42.725Z,80.50
2022-07-30T10:08:39.727Z,80.69
2022-07-30T10:09:39.666Z,79.33
2022-07-30T10:10:47.039Z,77.72
2022-07-30T10:11:39.601Z,79.28
2022-07-30T10:12:39.549Z,80.15
2022-07-30T10:13:43.909Z,80.58
2022-07-30T10:14:42.529Z,79.41
2022-07-30T10:15:39.414Z,78.58
2022-07-30T10:16:39.376Z,78.58
2022-07-30T10:17:39.357Z,78.03
2022-07-30T10:18:39.283Z,77.34
2022-07-30T10:19:39.908Z,76.08
2022-07-30T10:20:39.203Z,73.84
2022-07-30T10:21:39.155Z,75.01
2022-07-30T10:22:39.126Z,76.08
2022-07-30T10:23:44.325Z,75.10
2022-07-30T10:24:39.064Z,75.73
2022-07-30T10:25:49.439Z,74.04
2022-07-30T10:26:38.961Z,74.43
2022-07-30T10:27:38.935Z,75.10
2022-07-30T10:28:38.862Z,73.94
2022-07-30T10:29:38.820Z,74.58
2022-07-30T10:30:38.806Z,74.23
2022-07-30T10:31:48.614Z,74.43
2022-07-30T10:32:38.705Z,74.43
2022-07-30T10:33:40.269Z,73.58
2022-07-30T10:34:42.482Z,72.12
2022-07-30T10:35:38.662Z,72.51
2022-07-30T10:36:38.535Z,72.94
2022-07-30T10:37:38.493Z,72.16
2022-07-30T10:38:39.212Z,71.28
2022-07-30T10:39:38.431Z,73.13
2022-07-30T10:40:39.632Z,71.57
2022-07-30T10:41:47.311Z,72.55
2022-07-30T10:42:38.277Z,70.89
2022-07-30T10:43:38.243Z,71.80
2022-07-30T10:44:38.198Z,71.08
2022-07-30T10:45:43.741Z,71.96
2022-07-30T10:46:38.122Z,71.67
2022-07-30T10:47:44.954Z,71.47
2022-07-30T10:48:38.046Z,72.35
2022-07-30T10:49:41.274Z,69.33
2022-07-30T10:50:37.979Z,70.66
2022-07-30T10:51:37.931Z,70.95
2022-07-30T10:52:37.890Z,71.18
2022-07-30T10:53:37.821Z,70.50
2022-07-30T10:54:39.475Z,70.83
2022-07-30T10:55:38.867Z,71.15
2022-07-30T10:56:37.708Z,68.81
2022-07-30T10:57:41.471Z,70.67
2022-07-30T10:58:37.629Z,69.49
2022-07-30T10:59:37.577Z,69.69
2022-07-30T11:00:38.316Z,70.37
2022-07-30T11:01:37.501Z,69.69
2022-07-30T11:02:37.477Z,67.38
2022-07-30T11:03:41.157Z,69.40
2022-07-30T11:04:37.368Z,68.36
2022-07-30T11:05:45.451Z,66.60
2022-07-30T11:06:37.289Z,67.02
2022-07-30T11:07:37.234Z,65.63
2022-07-30T11:08:37.217Z,67.19
2022-07-30T11:09:37.210Z,67.09
2022-07-30T11:10:37.148Z,65.72
2022-07-30T11:12:05.447Z,66.02
2022-07-30T11:12:37.048Z,66.76
2022-07-30T11:13:38.379Z,67.15
2022-07-30T11:14:36.976Z,68.42
2022-07-30T11:15:36.941Z,66.24
2022-07-30T11:16:37.217Z,67.22
2022-07-30T11:17:36.856Z,66.53
2022-07-30T11:18:36.826Z,64.00
2022-07-30T11:19:55.988Z,62.63
2022-07-30T11:20:36.708Z,66.27
2022-07-30T11:21:36.664Z,67.05
2022-07-30T11:22:36.674Z,68.07
2022-07-30T11:23:36.642Z,67.48
2022-07-30T11:24:36.595Z,67.25
2022-07-30T11:25:50.739Z,65.63
2022-07-30T11:26:36.466Z,65.78
2022-07-30T11:27:36.474Z,66.31
2022-07-30T11:28:36.418Z,64.94
2022-07-30T11:29:36.375Z,65.33
2022-07-30T11:30:36.318Z,66.21
2022-07-30T11:31:56.665Z,67.32
2022-07-30T11:32:36.239Z,65.36
2022-07-30T11:33:36.202Z,64.48
2022-07-30T11:34:36.186Z,66.83
2022-07-30T11:35:36.128Z,65.78
2022-07-30T11:36:36.085Z,62.85
2022-07-30T11:37:36.020Z,62.29
2022-07-30T11:38:36.017Z,62.56
2022-07-30T11:39:38.766Z,64.12
2022-07-30T11:40:35.938Z,63.02
2022-07-30T11:41:35.854Z,64.65
2022-07-30T11:42:35.815Z,64.42
2022-07-30T11:43:36.931Z,65.17
2022-07-30T11:44:35.742Z,65.53
2022-07-30T11:45:35.744Z,65.72
2022-07-30T11:46:35.669Z,66.76
2022-07-30T11:47:35.632Z,65.50
2022-07-30T11:48:35.615Z,65.56
2022-07-30T11:49:35.594Z,67.96
2022-07-30T11:50:35.507Z,68.64
2022-07-30T11:51:35.483Z,69.42
2022-07-30T11:52:35.427Z,70.07
2022-07-30T11:53:35.396Z,70.07
2022-07-30T11:54:35.380Z,69.65
2022-07-30T11:55:35.321Z,69.45
2022-07-30T11:56:35.281Z,69.42
2022-07-30T11:57:38.207Z,68.05
2022-07-30T11:58:35.216Z,66.21
2022-07-30T11:59:35.138Z,67.57
2022-07-30T12:00:35.136Z,67.41
2022-07-30T12:01:35.066Z,67.02
2022-07-30T12:02:35.039Z,67.05
2022-07-30T12:03:41.517Z,68.84
2022-07-30T12:04:41.556Z,66.41
2022-07-30T12:05:37.544Z,68.19
2022-07-30T12:06:37.523Z,67.32
2022-07-30T12:07:37.567Z,68.19
2022-07-30T12:08:37.543Z,68.19
2022-07-30T12:09:37.548Z,67.99
2022-07-30T12:10:34.703Z,66.41
2022-07-30T12:11:34.694Z,66.79
2022-07-30T12:12:34.615Z,68.26
2022-07-30T12:13:44.452Z,68.35
2022-07-30T12:14:34.528Z,69.42
2022-07-30T12:15:34.500Z,70.30
2022-07-30T12:16:34.447Z,69.52
2022-07-30T12:17:34.428Z,69.10
2022-07-30T12:18:34.366Z,67.05
2022-07-30T12:19:47.395Z,67.99
2022-07-30T12:20:34.278Z,67.90
2022-07-30T12:21:34.244Z,68.93
2022-07-30T12:22:34.216Z,68.38
2022-07-30T12:23:34.159Z,68.09
2022-07-30T12:24:34.097Z,66.14
2022-07-30T12:25:34.064Z,66.89
2022-07-30T12:26:34.069Z,64.95
2022-07-30T12:27:34.049Z,65.40
2022-07-30T12:28:33.949Z,66.96
2022-07-30T12:29:33.889Z,66.66
2022-07-30T12:30:33.862Z,66.96
2022-07-30T12:31:33.940Z,68.48
2022-07-30T12:32:33.809Z,69.06
2022-07-30T12:33:33.755Z,70.32
2022-07-30T12:34:33.731Z,70.42
2022-07-30T12:35:33.652Z,68.83
2022-07-30T12:36:33.680Z,69.15
2022-07-30T12:37:33.580Z,70.42
2022-07-30T12:38:33.572Z,72.17
2022-07-30T12:39:33.515Z,72.45
2022-07-30T12:40:33.469Z,71.78
2022-07-30T12:41:33.413Z,70.75
2022-07-30T12:42:33.364Z,72.01
2022-07-30T12:43:33.406Z,68.22
2022-07-30T12:44:33.364Z,67.18
2022-07-30T12:45:52.116Z,69.45
2022-07-30T12:46:33.190Z,70.65
2022-07-30T12:47:33.153Z,70.20
2022-07-30T12:48:33.143Z,69.52
2022-07-30T12:49:37.638Z,67.32
2022-07-30T12:50:33.048Z,65.78
2022-07-30T12:51:32.995Z,65.69